الصفحة الرئيسية
METAR-TAF:

METAR-TAF

مطار :

Eagle, كولورادو, الولايات المتحدة

دائرة عرض: 39-39N, خط طول: 106-55W, ارتفاع: 1993 متر

مراقبة الطقس الحالي

تاريخ ووقت الإصدار 20 دقيقة قبل الساعة 13:56UTC
ريح 3 عقدة من الشرق/الشمال الشرقي
درجة الحرارة -17°درجة مئوية
الرطوبة 84%
ضغط 1035 hPa
الرؤية: 9.7 كم
سماء صافية
غشاء

METAR: KEGE 141356Z 07003KT 6SM BR CLR M17/M19 A3057 RMK AO2 SLP464 T11671189

زمن: 07:16 (14:16 UTC)

توقعات

تاريخ ووقت الإصدار 2ساعات و 56 دقيقة قبل الساعة 11:20UTC
التوقعات صالحة من14 الساعة 12 UTC إلى 15 الساعة 12 UTC
ريح 5 عقدة من الجنوب الشرقي
الرؤية: 10 كم
سماء صافية
من 15 الساعة 1100 UTC
ريح عقدة من الشمال
الرؤية: 10 كم
غيوم مفككة على ارتفاع 20000 قدم

TAF: KEGE 141120Z 1412/1512 13005KT P6SM SKC FM151100 00000KT P6SM BKN200

أرصاد الطقس والتوقعات من أكثر من 4000 مطار (تقارير الطقس للمطار METAR والتنبؤ بالطقس بالمطارTAF).

المحطات المتاحة هي النقط الصفراء والحمراء على الخريطة.

حرك المؤشر فوق النقطة لمعرفة اسم المحطة.

ثم انقر لمعرفة أرصاد وتوقعات الطقس.

لتغيير الخارطة: اضغط على الأزرار الخضراء مع رمز الصليب الأسود للتكبير. على الزر الأخضر مع شرطة للتصغير، أو على الأسهم الخضراء للخرائط المجاورة.


METAR-TAF: